sensor_id;sensor_type;location;lat;lon;timestamp;temperature;humidity
3715;DHT22;1873;49.988;8.674;2022-08-01T00:02:00;24.70;90.80
3715;DHT22;1873;49.988;8.674;2022-08-01T00:04:29;24.70;90.90
3715;DHT22;1873;49.988;8.674;2022-08-01T00:06:59;24.60;91.20
3715;DHT22;1873;49.988;8.674;2022-08-01T00:09:28;24.60;91.40
3715;DHT22;1873;49.988;8.674;2022-08-01T00:11:56;24.60;91.70
3715;DHT22;1873;49.988;8.674;2022-08-01T00:14:26;24.50;92.20
3715;DHT22;1873;49.988;8.674;2022-08-01T00:16:58;24.50;91.90
3715;DHT22;1873;49.988;8.674;2022-08-01T00:19:33;24.40;92.10
3715;DHT22;1873;49.988;8.674;2022-08-01T00:22:03;24.40;92.60
3715;DHT22;1873;49.988;8.674;2022-08-01T00:24:33;24.30;92.70
3715;DHT22;1873;49.988;8.674;2022-08-01T00:27:01;24.30;93.10
3715;DHT22;1873;49.988;8.674;2022-08-01T00:29:29;24.10;93.20
3715;DHT22;1873;49.988;8.674;2022-08-01T00:32:18;24.00;93.60
3715;DHT22;1873;49.988;8.674;2022-08-01T00:34:46;24.00;93.90
3715;DHT22;1873;49.988;8.674;2022-08-01T00:37:19;24.00;94.10
3715;DHT22;1873;49.988;8.674;2022-08-01T00:39:47;24.00;94.00
3715;DHT22;1873;49.988;8.674;2022-08-01T00:42:16;24.00;93.90
3715;DHT22;1873;49.988;8.674;2022-08-01T00:44:44;24.00;94.00
3715;DHT22;1873;49.988;8.674;2022-08-01T00:47:12;24.00;94.10
3715;DHT22;1873;49.988;8.674;2022-08-01T00:49:42;24.10;94.00
3715;DHT22;1873;49.988;8.674;2022-08-01T00:52:10;24.10;93.80
3715;DHT22;1873;49.988;8.674;2022-08-01T00:54:41;24.10;93.90
3715;DHT22;1873;49.988;8.674;2022-08-01T00:57:10;24.10;94.00
3715;DHT22;1873;49.988;8.674;2022-08-01T00:59:40;24.10;94.00
3715;DHT22;1873;49.988;8.674;2022-08-01T01:02:09;24.10;94.10
3715;DHT22;1873;49.988;8.674;2022-08-01T01:04:41;24.00;94.20
3715;DHT22;1873;49.988;8.674;2022-08-01T01:07:12;24.10;94.20
3715;DHT22;1873;49.988;8.674;2022-08-01T01:09:52;24.00;94.30
3715;DHT22;1873;49.988;8.674;2022-08-01T01:12:29;24.00;94.40
3715;DHT22;1873;49.988;8.674;2022-08-01T01:15:07;23.90;94.60
3715;DHT22;1873;49.988;8.674;2022-08-01T01:17:41;23.90;94.90
3715;DHT22;1873;49.988;8.674;2022-08-01T01:20:20;23.80;95.10
3715;DHT22;1873;49.988;8.674;2022-08-01T01:23:02;23.70;95.30
3715;DHT22;1873;49.988;8.674;2022-08-01T01:25:54;23.70;95.50
3715;DHT22;1873;49.988;8.674;2022-08-01T01:28:33;23.70;95.50
3715;DHT22;1873;49.988;8.674;2022-08-01T01:31:06;23.70;95.70
3715;DHT22;1873;49.988;8.674;2022-08-01T01:33:37;23.70;96.40
3715;DHT22;1873;49.988;8.674;2022-08-01T01:36:14;23.50;96.10
3715;DHT22;1873;49.988;8.674;2022-08-01T01:38:45;23.40;96.60
3715;DHT22;1873;49.988;8.674;2022-08-01T01:41:16;23.30;97.20
3715;DHT22;1873;49.988;8.674;2022-08-01T01:43:46;23.30;97.40
3715;DHT22;1873;49.988;8.674;2022-08-01T01:46:18;23.30;97.60
3715;DHT22;1873;49.988;8.674;2022-08-01T01:48:50;23.10;98.00
3715;DHT22;1873;49.988;8.674;2022-08-01T01:51:22;23.00;98.50
3715;DHT22;1873;49.988;8.674;2022-08-01T01:53:52;23.10;98.90
3715;DHT22;1873;49.988;8.674;2022-08-01T01:56:21;23.10;99.20
3715;DHT22;1873;49.988;8.674;2022-08-01T01:58:52;23.10;99.10
3715;DHT22;1873;49.988;8.674;2022-08-01T02:01:24;23.10;99.30
3715;DHT22;1873;49.988;8.674;2022-08-01T02:04:14;23.10;99.40
3715;DHT22;1873;49.988;8.674;2022-08-01T02:06:43;23.10;99.90
3715;DHT22;1873;49.988;8.674;2022-08-01T02:09:15;23.10;99.90
3715;DHT22;1873;49.988;8.674;2022-08-01T02:11:45;23.10;99.90
3715;DHT22;1873;49.988;8.674;2022-08-01T02:14:34;23.10;99.90
3715;DHT22;1873;49.988;8.674;2022-08-01T02:17:04;23.10;99.90
3715;DHT22;1873;49.988;8.674;2022-08-01T02:19:34;23.10;99.90
3715;DHT22;1873;49.988;8.674;2022-08-01T02:22:07;23.10;99.90
3715;DHT22;1873;49.988;8.674;2022-08-01T02:24:40;23.00;99.90
3715;DHT22;1873;49.988;8.674;2022-08-01T02:27:12;23.00;99.90
3715;DHT22;1873;49.988;8.674;2022-08-01T02:29:45;23.00;99.90
3715;DHT22;1873;49.988;8.674;2022-08-01T02:32:19;23.00;99.90
3715;DHT22;1873;49.988;8.674;2022-08-01T02:34:49;23.00;99.90
3715;DHT22;1873;49.988;8.674;2022-08-01T02:37:19;23.00;99.90
3715;DHT22;1873;49.988;8.674;2022-08-01T02:39:51;23.00;99.90
3715;DHT22;1873;49.988;8.674;2022-08-01T02:42:23;23.00;99.90
3715;DHT22;1873;49.988;8.674;2022-08-01T02:44:53;23.00;99.90
3715;DHT22;1873;49.988;8.674;2022-08-01T02:47:27;23.00;99.90
3715;DHT22;1873;49.988;8.674;2022-08-01T02:49:59;22.70;99.90
3715;DHT22;1873;49.988;8.674;2022-08-01T02:52:28;22.60;99.90
3715;DHT22;1873;49.988;8.674;2022-08-01T02:54:59;22.30;99.90
3715;DHT22;1873;49.988;8.674;2022-08-01T02:57:31;22.30;99.90
3715;DHT22;1873;49.988;8.674;2022-08-01T03:00:18;22.40;99.90
3715;DHT22;1873;49.988;8.674;2022-08-01T03:02:52;22.40;99.90
3715;DHT22;1873;49.988;8.674;2022-08-01T03:05:24;22.30;99.90
3715;DHT22;1873;49.988;8.674;2022-08-01T03:07:55;22.40;99.90
3715;DHT22;1873;49.988;8.674;2022-08-01T03:10:30;22.40;99.90
3715;DHT22;1873;49.988;8.674;2022-08-01T03:13:00;22.40;99.90
3715;DHT22;1873;49.988;8.674;2022-08-01T03:15:31;22.40;99.90
3715;DHT22;1873;49.988;8.674;2022-08-01T03:18:03;22.40;99.90
3715;DHT22;1873;49.988;8.674;2022-08-01T03:20:33;22.40;99.90
3715;DHT22;1873;49.988;8.674;2022-08-01T03:23:05;22.40;99.90
3715;DHT22;1873;49.988;8.674;2022-08-01T03:25:35;22.40;99.90
3715;DHT22;1873;49.988;8.674;2022-08-01T03:28:06;22.40;99.90
3715;DHT22;1873;49.988;8.674;2022-08-01T03:30:37;22.40;99.90
3715;DHT22;1873;49.988;8.674;2022-08-01T03:33:08;22.40;99.90
3715;DHT22;1873;49.988;8.674;2022-08-01T03:35:48;22.40;99.90
3715;DHT22;1873;49.988;8.674;2022-08-01T03:38:21;22.40;99.90
3715;DHT22;1873;49.988;8.674;2022-08-01T03:40:53;22.40;99.90
3715;DHT22;1873;49.988;8.674;2022-08-01T03:43:41;22.40;99.90
3715;DHT22;1873;49.988;8.674;2022-08-01T03:46:15;22.30;99.90
3715;DHT22;1873;49.988;8.674;2022-08-01T03:48:48;22.20;99.90
3715;DHT22;1873;49.988;8.674;2022-08-01T03:51:18;22.20;99.90
3715;DHT22;1873;49.988;8.674;2022-08-01T03:53:47;22.00;99.90
3715;DHT22;1873;49.988;8.674;2022-08-01T03:56:18;21.90;99.90
3715;DHT22;1873;49.988;8.674;2022-08-01T03:58:48;21.60;99.90
3715;DHT22;1873;49.988;8.674;2022-08-01T04:01:21;21.50;99.90
3715;DHT22;1873;49.988;8.674;2022-08-01T04:03:51;21.50;99.90
3715;DHT22;1873;49.988;8.674;2022-08-01T04:06:19;21.60;99.90
3715;DHT22;1873;49.988;8.674;2022-08-01T04:08:47;21.70;99.90
3715;DHT22;1873;49.988;8.674;2022-08-01T04:11:24;21.80;99.90
3715;DHT22;1873;49.988;8.674;2022-08-01T04:13:54;21.80;99.90
3715;DHT22;1873;49.988;8.674;2022-08-01T04:16:24;21.90;99.90
3715;DHT22;1873;49.988;8.674;2022-08-01T04:18:54;21.90;99.90
3715;DHT22;1873;49.988;8.674;2022-08-01T04:21:26;21.90;99.90
3715;DHT22;1873;49.988;8.674;2022-08-01T04:23:59;21.90;99.90
3715;DHT22;1873;49.988;8.674;2022-08-01T04:27:06;22.00;99.90
3715;DHT22;1873;49.988;8.674;2022-08-01T04:29:37;22.10;99.90
3715;DHT22;1873;49.988;8.674;2022-08-01T04:32:07;22.10;99.90
3715;DHT22;1873;49.988;8.674;2022-08-01T04:34:39;22.20;99.90
3715;DHT22;1873;49.988;8.674;2022-08-01T04:37:10;21.90;99.90
3715;DHT22;1873;49.988;8.674;2022-08-01T04:39:40;21.80;99.90
3715;DHT22;1873;49.988;8.674;2022-08-01T04:42:17;21.80;99.90
3715;DHT22;1873;49.988;8.674;2022-08-01T04:44:56;22.00;99.90
3715;DHT22;1873;49.988;8.674;2022-08-01T04:47:25;21.90;99.90
3715;DHT22;1873;49.988;8.674;2022-08-01T04:49:55;21.90;99.90
3715;DHT22;1873;49.988;8.674;2022-08-01T04:52:33;21.90;99.90
3715;DHT22;1873;49.988;8.674;2022-08-01T04:55:03;21.90;99.90
3715;DHT22;1873;49.988;8.674;2022-08-01T04:57:35;21.80;99.90
3715;DHT22;1873;49.988;8.674;2022-08-01T05:00:08;21.70;99.90
3715;DHT22;1873;49.988;8.674;2022-08-01T05:02:37;21.50;99.90
3715;DHT22;1873;49.988;8.674;2022-08-01T05:05:09;21.40;99.90
3715;DHT22;1873;49.988;8.674;2022-08-01T05:07:39;21.50;99.90
3715;DHT22;1873;49.988;8.674;2022-08-01T05:10:11;21.30;99.90
3715;DHT22;1873;49.988;8.674;2022-08-01T05:12:40;21.50;99.90
3715;DHT22;1873;49.988;8.674;2022-08-01T05:15:08;21.60;99.90
3715;DHT22;1873;49.988;8.674;2022-08-01T05:17:41;21.80;99.90
3715;DHT22;1873;49.988;8.674;2022-08-01T05:20:12;21.90;99.90
3715;DHT22;1873;49.988;8.674;2022-08-01T05:22:41;21.90;99.90
3715;DHT22;1873;49.988;8.674;2022-08-01T05:25:10;22.10;99.90
3715;DHT22;1873;49.988;8.674;2022-08-01T05:27:44;22.10;99.90
3715;DHT22;1873;49.988;8.674;2022-08-01T05:30:14;22.20;99.90
3715;DHT22;1873;49.988;8.674;2022-08-01T05:32:43;22.40;99.90
3715;DHT22;1873;49.988;8.674;2022-08-01T05:35:13;22.40;99.90
3715;DHT22;1873;49.988;8.674;2022-08-01T05:37:42;22.50;99.90
3715;DHT22;1873;49.988;8.674;2022-08-01T05:40:11;22.60;99.90
3715;DHT22;1873;49.988;8.674;2022-08-01T05:42:39;22.60;99.90
3715;DHT22;1873;49.988;8.674;2022-08-01T05:45:09;22.60;99.90
3715;DHT22;1873;49.988;8.674;2022-08-01T05:47:37;22.60;99.90
3715;DHT22;1873;49.988;8.674;2022-08-01T05:50:09;22.60;99.90
3715;DHT22;1873;49.988;8.674;2022-08-01T05:52:39;22.70;99.90
3715;DHT22;1873;49.988;8.674;2022-08-01T05:55:08;22.60;99.90
3715;DHT22;1873;49.988;8.674;2022-08-01T05:57:37;22.60;99.90
3715;DHT22;1873;49.988;8.674;2022-08-01T06:00:09;22.60;99.90
3715;DHT22;1873;49.988;8.674;2022-08-01T06:02:40;22.70;99.90
3715;DHT22;1873;49.988;8.674;2022-08-01T06:05:11;22.70;99.90
3715;DHT22;1873;49.988;8.674;2022-08-01T06:07:41;22.70;99.90
3715;DHT22;1873;49.988;8.674;2022-08-01T06:10:10;22.60;99.90
3715;DHT22;1873;49.988;8.674;2022-08-01T06:12:38;22.40;99.90
3715;DHT22;1873;49.988;8.674;2022-08-01T06:15:08;22.40;99.90
3715;DHT22;1873;49.988;8.674;2022-08-01T06:17:36;22.50;99.90
3715;DHT22;1873;49.988;8.674;2022-08-01T06:20:07;22.20;99.90
3715;DHT22;1873;49.988;8.674;2022-08-01T06:22:35;22.20;99.90
3715;DHT22;1873;49.988;8.674;2022-08-01T06:25:07;22.00;99.90
3715;DHT22;1873;49.988;8.674;2022-08-01T06:27:36;21.90;99.90
3715;DHT22;1873;49.988;8.674;2022-08-01T06:30:06;21.90;99.90
3715;DHT22;1873;49.988;8.674;2022-08-01T06:32:35;21.90;99.90
3715;DHT22;1873;49.988;8.674;2022-08-01T06:35:05;22.10;99.90
3715;DHT22;1873;49.988;8.674;2022-08-01T06:37:33;22.30;99.90
3715;DHT22;1873;49.988;8.674;2022-08-01T06:40:02;22.50;99.90
3715;DHT22;1873;49.988;8.674;2022-08-01T06:42:33;22.70;99.90
3715;DHT22;1873;49.988;8.674;2022-08-01T06:45:03;22.80;99.90
3715;DHT22;1873;49.988;8.674;2022-08-01T06:47:32;22.60;99.90
3715;DHT22;1873;49.988;8.674;2022-08-01T06:50:01;22.40;99.90
3715;DHT22;1873;49.988;8.674;2022-08-01T06:52:29;22.40;99.90
3715;DHT22;1873;49.988;8.674;2022-08-01T06:54:58;22.40;99.90
3715;DHT22;1873;49.988;8.674;2022-08-01T06:57:26;22.40;99.90
3715;DHT22;1873;49.988;8.674;2022-08-01T06:59:56;22.40;99.90
3715;DHT22;1873;49.988;8.674;2022-08-01T07:02:25;22.50;99.90
3715;DHT22;1873;49.988;8.674;2022-08-01T07:04:56;22.50;99.90
3715;DHT22;1873;49.988;8.674;2022-08-01T07:07:30;22.70;99.90
3715;DHT22;1873;49.988;8.674;2022-08-01T07:09:59;22.80;99.90
3715;DHT22;1873;49.988;8.674;2022-08-01T07:12:27;22.90;99.90
3715;DHT22;1873;49.988;8.674;2022-08-01T07:15:16;23.10;99.90
3715;DHT22;1873;49.988;8.674;2022-08-01T07:17:49;23.20;99.90
3715;DHT22;1873;49.988;8.674;2022-08-01T07:20:46;23.30;99.90
3715;DHT22;1873;49.988;8.674;2022-08-01T07:23:47;23.50;99.90
3715;DHT22;1873;49.988;8.674;2022-08-01T07:26:47;24.00;99.90
3715;DHT22;1873;49.988;8.674;2022-08-01T07:29:51;24.30;99.90
3715;DHT22;1873;49.988;8.674;2022-08-01T07:32:23;24.30;99.90
3715;DHT22;1873;49.988;8.674;2022-08-01T07:34:51;24.30;99.90
3715;DHT22;1873;49.988;8.674;2022-08-01T07:37:20;24.40;99.90
3715;DHT22;1873;49.988;8.674;2022-08-01T07:40:09;24.60;99.90
3715;DHT22;1873;49.988;8.674;2022-08-01T07:42:39;24.60;99.90
3715;DHT22;1873;49.988;8.674;2022-08-01T07:45:10;24.40;99.90
3715;DHT22;1873;49.988;8.674;2022-08-01T07:47:40;25.50;99.90
3715;DHT22;1873;49.988;8.674;2022-08-01T07:50:09;26.40;99.90
3715;DHT22;1873;49.988;8.674;2022-08-01T07:52:39;26.50;99.90
3715;DHT22;1873;49.988;8.674;2022-08-01T07:55:08;26.00;99.90
3715;DHT22;1873;49.988;8.674;2022-08-01T07:57:41;25.70;99.90
3715;DHT22;1873;49.988;8.674;2022-08-01T08:00:12;25.80;99.90
3715;DHT22;1873;49.988;8.674;2022-08-01T08:02:42;26.00;99.90
3715;DHT22;1873;49.988;8.674;2022-08-01T08:05:11;26.20;99.90
3715;DHT22;1873;49.988;8.674;2022-08-01T08:08:01;26.10;99.90
3715;DHT22;1873;49.988;8.674;2022-08-01T08:10:31;25.70;99.90
3715;DHT22;1873;49.988;8.674;2022-08-01T08:13:26;25.40;99.90
3715;DHT22;1873;49.988;8.674;2022-08-01T08:16:04;25.30;99.90
3715;DHT22;1873;49.988;8.674;2022-08-01T08:19:03;25.30;99.90
3715;DHT22;1873;49.988;8.674;2022-08-01T08:21:34;25.50;99.90
3715;DHT22;1873;49.988;8.674;2022-08-01T08:24:04;25.60;99.90
3715;DHT22;1873;49.988;8.674;2022-08-01T08:26:54;25.90;99.90
3715;DHT22;1873;49.988;8.674;2022-08-01T08:29:23;26.00;99.90
3715;DHT22;1873;49.988;8.674;2022-08-01T08:32:09;26.10;99.90
3715;DHT22;1873;49.988;8.674;2022-08-01T08:35:02;26.20;99.90
3715;DHT22;1873;49.988;8.674;2022-08-01T08:38:08;26.20;99.90
3715;DHT22;1873;49.988;8.674;2022-08-01T08:41:10;26.00;99.90
3715;DHT22;1873;49.988;8.674;2022-08-01T08:43:50;25.90;99.90
3715;DHT22;1873;49.988;8.674;2022-08-01T08:46:43;25.70;99.90
3715;DHT22;1873;49.988;8.674;2022-08-01T08:49:33;25.60;99.90
3715;DHT22;1873;49.988;8.674;2022-08-01T08:52:05;25.40;99.90
3715;DHT22;1873;49.988;8.674;2022-08-01T08:54:36;25.30;99.90
3715;DHT22;1873;49.988;8.674;2022-08-01T08:57:15;25.20;99.90
3715;DHT22;1873;49.988;8.674;2022-08-01T08:59:51;25.10;99.90
3715;DHT22;1873;49.988;8.674;2022-08-01T09:02:22;25.40;99.90
3715;DHT22;1873;49.988;8.674;2022-08-01T09:04:52;25.60;99.90
3715;DHT22;1873;49.988;8.674;2022-08-01T09:10:56;25.40;99.90
3715;DHT22;1873;49.988;8.674;2022-08-01T09:14:05;25.30;99.90
3715;DHT22;1873;49.988;8.674;2022-08-01T09:16:39;25.20;99.90
3715;DHT22;1873;49.988;8.674;2022-08-01T09:19:16;25.20;99.90
3715;DHT22;1873;49.988;8.674;2022-08-01T09:22:06;25.20;99.90
3715;DHT22;1873;49.988;8.674;2022-08-01T09:24:36;25.50;99.90
3715;DHT22;1873;49.988;8.674;2022-08-01T09:27:21;25.80;99.90
3715;DHT22;1873;49.988;8.674;2022-08-01T09:29:53;25.30;99.90
3715;DHT22;1873;49.988;8.674;2022-08-01T09:32:29;25.30;99.90
3715;DHT22;1873;49.988;8.674;2022-08-01T09:35:24;25.10;99.90
3715;DHT22;1873;49.988;8.674;2022-08-01T09:38:13;25.00;99.90
3715;DHT22;1873;49.988;8.674;2022-08-01T09:40:45;24.70;99.90
3715;DHT22;1873;49.988;8.674;2022-08-01T09:43:17;24.90;99.90
3715;DHT22;1873;49.988;8.674;2022-08-01T09:45:46;25.40;99.90
3715;DHT22;1873;49.988;8.674;2022-08-01T09:48:20;25.60;99.90
3715;DHT22;1873;49.988;8.674;2022-08-01T09:50:56;25.60;99.90
3715;DHT22;1873;49.988;8.674;2022-08-01T09:53:47;25.60;99.90
3715;DHT22;1873;49.988;8.674;2022-08-01T09:56:36;25.50;99.90
3715;DHT22;1873;49.988;8.674;2022-08-01T09:59:10;25.30;99.90
3715;DHT22;1873;49.988;8.674;2022-08-01T10:01:45;25.10;99.90
3715;DHT22;1873;49.988;8.674;2022-08-01T10:04:20;25.00;99.90
3715;DHT22;1873;49.988;8.674;2022-08-01T10:07:12;25.00;99.90
3715;DHT22;1873;49.988;8.674;2022-08-01T10:09:53;25.00;99.90
3715;DHT22;1873;49.988;8.674;2022-08-01T10:12:37;24.50;99.90
3715;DHT22;1873;49.988;8.674;2022-08-01T10:15:15;24.30;99.90
3715;DHT22;1873;49.988;8.674;2022-08-01T10:17:53;22.60;99.90
3715;DHT22;1873;49.988;8.674;2022-08-01T10:20:25;25.10;99.90
3715;DHT22;1873;49.988;8.674;2022-08-01T10:22:59;25.80;99.90
3715;DHT22;1873;49.988;8.674;2022-08-01T10:25:35;26.60;99.90
3715;DHT22;1873;49.988;8.674;2022-08-01T10:28:13;26.90;99.30
3715;DHT22;1873;49.988;8.674;2022-08-01T10:30:49;27.60;98.20
3715;DHT22;1873;49.988;8.674;2022-08-01T10:33:21;28.30;96.90
3715;DHT22;1873;49.988;8.674;2022-08-01T10:36:09;27.80;95.30
3715;DHT22;1873;49.988;8.674;2022-08-01T10:38:39;27.10;96.80
3715;DHT22;1873;49.988;8.674;2022-08-01T10:41:08;26.80;97.60
3715;DHT22;1873;49.988;8.674;2022-08-01T10:43:38;27.20;97.10
3715;DHT22;1873;49.988;8.674;2022-08-01T10:46:14;27.60;96.50
3715;DHT22;1873;49.988;8.674;2022-08-01T10:48:49;27.40;96.20
3715;DHT22;1873;49.988;8.674;2022-08-01T10:51:20;28.10;95.70
3715;DHT22;1873;49.988;8.674;2022-08-01T10:54:12;28.50;95.00
3715;DHT22;1873;49.988;8.674;2022-08-01T10:56:44;28.80;94.00
3715;DHT22;1873;49.988;8.674;2022-08-01T10:59:19;28.80;93.10
3715;DHT22;1873;49.988;8.674;2022-08-01T11:02:09;28.60;93.10
3715;DHT22;1873;49.988;8.674;2022-08-01T11:04:44;29.20;92.30
3715;DHT22;1873;49.988;8.674;2022-08-01T11:07:20;29.40;90.50
3715;DHT22;1873;49.988;8.674;2022-08-01T11:10:03;29.70;90.40
3715;DHT22;1873;49.988;8.674;2022-08-01T11:12:41;29.70;89.90
3715;DHT22;1873;49.988;8.674;2022-08-01T11:15:27;29.90;89.20
3715;DHT22;1873;49.988;8.674;2022-08-01T11:18:30;30.00;85.90
3715;DHT22;1873;49.988;8.674;2022-08-01T11:21:04;29.20;87.30
3715;DHT22;1873;49.988;8.674;2022-08-01T11:23:55;29.50;86.50
3715;DHT22;1873;49.988;8.674;2022-08-01T11:30:22;29.90;81.20
3715;DHT22;1873;49.988;8.674;2022-08-01T11:32:54;29.90;82.90
3715;DHT22;1873;49.988;8.674;2022-08-01T11:39:18;30.30;81.00
3715;DHT22;1873;49.988;8.674;2022-08-01T11:41:48;29.80;80.00
3715;DHT22;1873;49.988;8.674;2022-08-01T11:44:24;29.50;83.10
3715;DHT22;1873;49.988;8.674;2022-08-01T11:46:59;29.20;83.20
3715;DHT22;1873;49.988;8.674;2022-08-01T11:49:47;29.20;83.30
3715;DHT22;1873;49.988;8.674;2022-08-01T11:52:28;29.00;83.50
3715;DHT22;1873;49.988;8.674;2022-08-01T11:55:06;28.90;83.90
3715;DHT22;1873;49.988;8.674;2022-08-01T11:57:37;28.70;83.90
3715;DHT22;1873;49.988;8.674;2022-08-01T12:00:11;28.60;84.40
3715;DHT22;1873;49.988;8.674;2022-08-01T12:02:44;28.60;83.10
3715;DHT22;1873;49.988;8.674;2022-08-01T12:05:14;28.50;84.20
3715;DHT22;1873;49.988;8.674;2022-08-01T12:07:47;28.30;81.30
3715;DHT22;1873;49.988;8.674;2022-08-01T12:10:18;28.40;82.50
3715;DHT22;1873;49.988;8.674;2022-08-01T12:12:49;28.40;81.90
3715;DHT22;1873;49.988;8.674;2022-08-01T12:15:20;28.40;80.30
3715;DHT22;1873;49.988;8.674;2022-08-01T12:17:50;28.50;79.70
3715;DHT22;1873;49.988;8.674;2022-08-01T12:20:26;28.30;81.40
3715;DHT22;1873;49.988;8.674;2022-08-01T12:23:00;28.00;82.40
3715;DHT22;1873;49.988;8.674;2022-08-01T12:25:29;27.70;84.40
3715;DHT22;1873;49.988;8.674;2022-08-01T12:28:00;27.60;84.10
3715;DHT22;1873;49.988;8.674;2022-08-01T12:30:29;27.60;84.50
3715;DHT22;1873;49.988;8.674;2022-08-01T12:33:03;27.50;84.50
3715;DHT22;1873;49.988;8.674;2022-08-01T12:35:32;27.50;83.20
3715;DHT22;1873;49.988;8.674;2022-08-01T12:38:14;27.70;83.50
3715;DHT22;1873;49.988;8.674;2022-08-01T12:40:44;27.70;82.60
3715;DHT22;1873;49.988;8.674;2022-08-01T12:43:18;27.50;81.70
3715;DHT22;1873;49.988;8.674;2022-08-01T12:46:26;27.70;84.40
3715;DHT22;1873;49.988;8.674;2022-08-01T12:48:55;27.80;83.50
3715;DHT22;1873;49.988;8.674;2022-08-01T12:51:23;27.90;82.20
3715;DHT22;1873;49.988;8.674;2022-08-01T12:53:58;27.90;82.70
3715;DHT22;1873;49.988;8.674;2022-08-01T12:56:32;28.00;80.90
3715;DHT22;1873;49.988;8.674;2022-08-01T12:59:01;27.80;80.50
3715;DHT22;1873;49.988;8.674;2022-08-01T13:01:29;27.80;80.50
3715;DHT22;1873;49.988;8.674;2022-08-01T13:03:59;27.50;81.40
3715;DHT22;1873;49.988;8.674;2022-08-01T13:06:29;27.50;81.70
3715;DHT22;1873;49.988;8.674;2022-08-01T13:09:06;27.50;81.40
3715;DHT22;1873;49.988;8.674;2022-08-01T13:11:36;27.60;80.90
3715;DHT22;1873;49.988;8.674;2022-08-01T13:14:30;27.60;81.20
3715;DHT22;1873;49.988;8.674;2022-08-01T13:16:59;27.30;82.30
3715;DHT22;1873;49.988;8.674;2022-08-01T13:19:44;27.20;82.20
3715;DHT22;1873;49.988;8.674;2022-08-01T13:22:13;27.30;81.00
3715;DHT22;1873;49.988;8.674;2022-08-01T13:25:09;27.30;80.50
3715;DHT22;1873;49.988;8.674;2022-08-01T13:27:42;27.40;80.90
3715;DHT22;1873;49.988;8.674;2022-08-01T13:30:20;27.40;80.40
3715;DHT22;1873;49.988;8.674;2022-08-01T13:32:57;27.50;80.40
3715;DHT22;1873;49.988;8.674;2022-08-01T13:35:26;27.50;80.00
3715;DHT22;1873;49.988;8.674;2022-08-01T13:37:54;27.60;80.10
3715;DHT22;1873;49.988;8.674;2022-08-01T13:40:26;27.50;80.30
3715;DHT22;1873;49.988;8.674;2022-08-01T13:42:56;27.50;80.60
3715;DHT22;1873;49.988;8.674;2022-08-01T13:45:24;27.60;78.80
3715;DHT22;1873;49.988;8.674;2022-08-01T13:50:38;27.60;78.10
3715;DHT22;1873;49.988;8.674;2022-08-01T13:53:09;27.60;79.80
3715;DHT22;1873;49.988;8.674;2022-08-01T13:58:40;27.70;79.90
3715;DHT22;1873;49.988;8.674;2022-08-01T14:01:10;27.70;79.30
3715;DHT22;1873;49.988;8.674;2022-08-01T14:03:39;27.70;79.10
3715;DHT22;1873;49.988;8.674;2022-08-01T14:08:44;27.80;76.50
3715;DHT22;1873;49.988;8.674;2022-08-01T14:11:18;27.80;77.30
3715;DHT22;1873;49.988;8.674;2022-08-01T14:13:48;27.70;76.60
3715;DHT22;1873;49.988;8.674;2022-08-01T14:16:18;27.70;77.50
3715;DHT22;1873;49.988;8.674;2022-08-01T14:18:46;27.60;78.50
3715;DHT22;1873;49.988;8.674;2022-08-01T14:21:17;27.80;77.90
3715;DHT22;1873;49.988;8.674;2022-08-01T14:24:02;27.80;77.00
3715;DHT22;1873;49.988;8.674;2022-08-01T14:26:37;27.90;75.90
3715;DHT22;1873;49.988;8.674;2022-08-01T14:29:27;27.90;75.10
3715;DHT22;1873;49.988;8.674;2022-08-01T14:32:16;27.90;74.40
3715;DHT22;1873;49.988;8.674;2022-08-01T14:35:08;27.80;75.10
3715;DHT22;1873;49.988;8.674;2022-08-01T14:38:25;27.70;74.30
3715;DHT22;1873;49.988;8.674;2022-08-01T14:40:57;27.70;75.40
3715;DHT22;1873;49.988;8.674;2022-08-01T14:43:49;27.60;75.10
3715;DHT22;1873;49.988;8.674;2022-08-01T14:46:22;27.60;76.40
3715;DHT22;1873;49.988;8.674;2022-08-01T14:48:50;27.50;77.40
3715;DHT22;1873;49.988;8.674;2022-08-01T14:51:19;27.50;78.20
3715;DHT22;1873;49.988;8.674;2022-08-01T14:53:54;27.50;79.30
3715;DHT22;1873;49.988;8.674;2022-08-01T14:56:23;27.50;79.60
3715;DHT22;1873;49.988;8.674;2022-08-01T14:58:53;27.50;78.50
3715;DHT22;1873;49.988;8.674;2022-08-01T15:01:26;27.50;78.70
3715;DHT22;1873;49.988;8.674;2022-08-01T15:03:55;25.20;77.00
3715;DHT22;1873;49.988;8.674;2022-08-01T15:06:23;27.50;79.50
3715;DHT22;1873;49.988;8.674;2022-08-01T15:08:52;27.50;78.60
3715;DHT22;1873;49.988;8.674;2022-08-01T15:11:35;27.50;79.20
3715;DHT22;1873;49.988;8.674;2022-08-01T15:14:05;27.50;79.00
3715;DHT22;1873;49.988;8.674;2022-08-01T15:17:21;27.40;80.60
3715;DHT22;1873;49.988;8.674;2022-08-01T15:19:55;27.40;77.30
3715;DHT22;1873;49.988;8.674;2022-08-01T15:22:36;27.40;77.90
3715;DHT22;1873;49.988;8.674;2022-08-01T15:25:30;27.40;76.20
3715;DHT22;1873;49.988;8.674;2022-08-01T15:28:08;27.30;77.00
3715;DHT22;1873;49.988;8.674;2022-08-01T15:30:37;27.30;77.30
3715;DHT22;1873;49.988;8.674;2022-08-01T15:33:07;27.30;76.80
3715;DHT22;1873;49.988;8.674;2022-08-01T15:35:36;27.20;77.20
3715;DHT22;1873;49.988;8.674;2022-08-01T15:38:05;27.20;76.80
3715;DHT22;1873;49.988;8.674;2022-08-01T15:40:33;27.10;77.00
3715;DHT22;1873;49.988;8.674;2022-08-01T15:46:11;27.10;79.90
3715;DHT22;1873;49.988;8.674;2022-08-01T15:48:41;27.00;78.60
3715;DHT22;1873;49.988;8.674;2022-08-01T15:51:10;27.00;79.30
3715;DHT22;1873;49.988;8.674;2022-08-01T15:53:39;26.90;79.90
3715;DHT22;1873;49.988;8.674;2022-08-01T15:56:09;26.80;82.10
3715;DHT22;1873;49.988;8.674;2022-08-01T15:58:37;26.70;84.40
3715;DHT22;1873;49.988;8.674;2022-08-01T16:01:06;26.50;88.00
3715;DHT22;1873;49.988;8.674;2022-08-01T16:03:36;26.30;90.20
3715;DHT22;1873;49.988;8.674;2022-08-01T16:06:06;26.10;92.00
3715;DHT22;1873;49.988;8.674;2022-08-01T16:08:35;25.90;93.60
3715;DHT22;1873;49.988;8.674;2022-08-01T16:11:03;25.60;93.60
3715;DHT22;1873;49.988;8.674;2022-08-01T16:13:33;25.60;94.40
3715;DHT22;1873;49.988;8.674;2022-08-01T16:16:04;25.50;94.60
3715;DHT22;1873;49.988;8.674;2022-08-01T16:18:34;25.50;94.60
3715;DHT22;1873;49.988;8.674;2022-08-01T16:21:04;25.20;95.30
3715;DHT22;1873;49.988;8.674;2022-08-01T16:23:35;25.10;96.00
3715;DHT22;1873;49.988;8.674;2022-08-01T16:26:05;24.90;95.00
3715;DHT22;1873;49.988;8.674;2022-08-01T16:28:53;24.80;95.50
3715;DHT22;1873;49.988;8.674;2022-08-01T16:31:23;25.10;95.40
3715;DHT22;1873;49.988;8.674;2022-08-01T16:34:12;25.30;95.30
3715;DHT22;1873;49.988;8.674;2022-08-01T16:36:41;25.20;94.70
3715;DHT22;1873;49.988;8.674;2022-08-01T16:39:12;25.20;94.80
3715;DHT22;1873;49.988;8.674;2022-08-01T16:41:48;22.80;93.60
3715;DHT22;1873;49.988;8.674;2022-08-01T16:44:31;25.20;94.90
3715;DHT22;1873;49.988;8.674;2022-08-01T16:47:02;25.30;95.00
3715;DHT22;1873;49.988;8.674;2022-08-01T16:49:31;25.30;94.50
3715;DHT22;1873;49.988;8.674;2022-08-01T16:52:00;25.40;94.70
3715;DHT22;1873;49.988;8.674;2022-08-01T16:54:30;25.50;94.20
3715;DHT22;1873;49.988;8.674;2022-08-01T16:57:00;25.40;94.60
3715;DHT22;1873;49.988;8.674;2022-08-01T16:59:35;25.30;94.90
3715;DHT22;1873;49.988;8.674;2022-08-01T17:02:07;25.40;95.40
3715;DHT22;1873;49.988;8.674;2022-08-01T17:04:36;25.40;95.20
3715;DHT22;1873;49.988;8.674;2022-08-01T17:07:04;25.50;95.50
3715;DHT22;1873;49.988;8.674;2022-08-01T17:09:34;25.60;95.20
3715;DHT22;1873;49.988;8.674;2022-08-01T17:12:09;25.70;94.80